Time;durP1;ratioP1;P1;durP2;ratioP2;P2;SDS_P1;SDS_P2;PMS_P1;PMS_P2;Temp;Humidity;BMP_temperature;BMP_pressure;BME280_temperature;BME280_humidity;BME280_pressure;Samples;Min_cycle;Max_cycle;Signal;HPM_P1;HPM_P2
2022/07/03 00:01:46;;;;;;;6.03;1.67;;;16.30;99.90;;;;;;5089723;28;20493;-57
2022/07/03 00:04:11;;;;;;;4.65;1.67;;;16.30;99.90;;;;;;5089476;28;20034;-57
2022/07/03 00:06:37;;;;;;;6.63;1.73;;;16.20;99.90;;;;;;5089628;28;20044;-57
2022/07/03 00:09:04;;;;;;;4.40;1.40;;;16.20;99.90;;;;;;5090521;28;20027;-57
2022/07/03 00:11:31;;;;;;;4.93;1.50;;;16.10;99.90;;;;;;5091278;28;20043;-57
2022/07/03 00:13:57;;;;;;;6.22;1.58;;;16.10;99.90;;;;;;5089152;28;20055;-57
2022/07/03 00:16:23;;;;;;;5.03;1.42;;;16.00;99.90;;;;;;5089511;28;20051;-57
2022/07/03 00:18:48;;;;;;;5.22;1.48;;;16.00;99.90;;;;;;5089781;28;20027;-57
2022/07/03 00:21:19;;;;;;;6.90;1.58;;;16.00;99.90;;;;;;5089709;28;20032;-57
2022/07/03 00:24:01;;;;;;;8.25;1.90;;;16.00;99.90;;;;;;5091427;28;20052;-57
2022/07/03 00:26:30;;;;;;;5.03;1.65;;;15.90;99.90;;;;;;5089837;28;20501;-58
2022/07/03 00:28:59;;;;;;;4.78;1.40;;;16.00;99.90;;;;;;5091672;28;20389;-57
2022/07/03 00:31:27;;;;;;;2.75;1.30;;;15.90;99.90;;;;;;5091475;28;20059;-58
2022/07/03 00:34:00;;;;;;;5.30;1.50;;;15.90;99.90;;;;;;5093173;28;20027;-58
2022/07/03 00:36:46;;;;;;;6.40;1.50;;;16.00;99.90;;;;;;5077257;28;20554;-57
2022/07/03 00:39:12;;;;;;;8.00;1.65;;;15.90;99.90;;;;;;5091325;28;20058;-57
2022/07/03 00:41:38;;;;;;;4.78;1.50;;;15.80;99.90;;;;;;5094387;28;20495;-58
2022/07/03 00:44:04;;;;;;;6.38;1.75;;;15.80;99.90;;;;;;5092819;28;20042;-57
2022/07/03 00:46:30;;;;;;;5.47;1.65;;;15.70;99.90;;;;;;5093149;28;20114;-58
2022/07/03 00:48:58;;;;;;;6.97;1.60;;;15.70;99.90;;;;;;5092734;28;20580;-57
2022/07/03 00:51:28;;;;;;;4.57;1.80;;;15.60;99.90;;;;;;5076699;28;20025;-57
2022/07/03 00:53:57;;;;;;;5.63;1.52;;;15.70;99.90;;;;;;5090737;28;20031;-57
2022/07/03 00:56:29;;;;;;;5.55;1.70;;;15.60;99.90;;;;;;5091316;28;20024;-57
2022/07/03 00:59:00;;;;;;;6.57;1.83;;;15.50;99.90;;;;;;5092524;28;20121;-57
2022/07/03 01:01:32;;;;;;;6.25;1.70;;;15.50;99.90;;;;;;5092553;28;20032;-58
2022/07/03 01:04:09;;;;;;;4.65;1.98;;;15.50;99.90;;;;;;5093128;28;20032;-57
2022/07/03 01:06:43;;;;;;;5.57;1.70;;;15.40;99.90;;;;;;5090664;28;20111;-57
2022/07/03 01:09:10;;;;;;;6.57;1.80;;;15.50;99.90;;;;;;5093194;28;20377;-57
2022/07/03 01:11:53;;;;;;;6.15;1.63;;;15.50;99.90;;;;;;5091888;28;20430;-57
2022/07/03 01:14:37;;;;;;;5.97;1.60;;;15.50;99.90;;;;;;5092590;28;20013;-58
2022/07/03 01:17:06;;;;;;;7.97;1.70;;;15.40;99.90;;;;;;5092547;28;20056;-58
2022/07/03 01:19:41;;;;;;;6.03;1.63;;;15.40;99.90;;;;;;5092034;28;20032;-58
2022/07/03 01:22:29;;;;;;;5.72;1.65;;;15.40;99.90;;;;;;5092028;28;20051;-57
2022/07/03 01:25:19;;;;;;;4.78;1.80;;;15.30;99.90;;;;;;5091726;28;20032;-57
2022/07/03 01:28:01;;;;;;;6.35;1.90;;;15.30;99.90;;;;;;5078790;28;20035;-57
2022/07/03 01:30:32;;;;;;;5.53;1.40;;;15.30;99.90;;;;;;5076155;28;20370;-57
2022/07/03 01:33:17;;;;;;;3.65;1.60;;;15.20;99.90;;;;;;5093349;28;20389;-58
2022/07/03 01:36:01;;;;;;;5.72;1.70;;;15.30;99.90;;;;;;5093013;28;20036;-57
2022/07/03 01:38:28;;;;;;;7.20;1.75;;;15.20;99.90;;;;;;5090629;28;20028;-57
2022/07/03 01:40:56;;;;;;;8.20;1.80;;;15.20;99.90;;;;;;5091282;28;20036;-58
2022/07/03 01:43:29;;;;;;;3.72;1.65;;;15.10;99.90;;;;;;5091753;28;20115;-57
2022/07/03 01:45:57;;;;;;;5.80;1.73;;;15.20;99.90;;;;;;5090280;28;20047;-57
2022/07/03 01:48:24;;;;;;;4.93;1.80;;;15.10;99.90;;;;;;5090684;28;20404;-58
2022/07/03 01:50:52;;;;;;;6.82;1.60;;;15.10;99.90;;;;;;5093289;28;20038;-57
2022/07/03 01:53:19;;;;;;;7.07;1.88;;;15.10;99.90;;;;;;5091695;28;20504;-58
2022/07/03 01:55:48;;;;;;;5.82;1.80;;;15.10;99.90;;;;;;5091145;28;20028;-57
2022/07/03 01:58:13;;;;;;;5.10;1.80;;;15.00;99.90;;;;;;5091328;28;20376;-57
2022/07/03 02:00:50;;;;;;;7.40;2.10;;;15.00;99.90;;;;;;5091486;28;20106;-58
2022/07/03 02:03:27;;;;;;;6.95;1.85;;;14.90;99.90;;;;;;5091778;28;20851;-57
2022/07/03 02:05:58;;;;;;;6.60;2.00;;;14.90;99.90;;;;;;5088646;28;20035;-58
2022/07/03 02:08:50;;;;;;;9.60;1.83;;;14.90;99.90;;;;;;5090008;28;20028;-57
2022/07/03 02:11:17;;;;;;;8.18;1.85;;;14.80;99.90;;;;;;5091116;28;20063;-57
2022/07/03 02:14:01;;;;;;;5.22;2.10;;;14.80;99.90;;;;;;5091312;28;20028;-58
2022/07/03 02:16:27;;;;;;;7.10;1.92;;;14.80;99.90;;;;;;5091574;28;20043;-57
2022/07/03 02:18:57;;;;;;;5.85;1.80;;;14.80;99.90;;;;;;5090929;28;20036;-57
2022/07/03 02:21:27;;;;;;;7.80;2.00;;;14.70;99.90;;;;;;5091034;28;20051;-58
2022/07/03 02:24:08;;;;;;;10.73;2.10;;;14.70;99.90;;;;;;5088530;28;20074;-57
2022/07/03 02:26:38;;;;;;;7.55;1.95;;;14.60;99.90;;;;;;5092552;28;20443;-57
2022/07/03 02:29:05;;;;;;;5.65;1.80;;;14.70;99.90;;;;;;5089246;28;20503;-58
2022/07/03 02:31:40;;;;;;;6.78;2.20;;;14.60;99.90;;;;;;5090696;28;20059;-57
2022/07/03 02:34:07;;;;;;;8.23;2.00;;;14.50;99.90;;;;;;5090587;28;20484;-58
2022/07/03 02:36:35;;;;;;;6.03;1.95;;;14.50;99.90;;;;;;5091286;28;20078;-57
2022/07/03 02:39:01;;;;;;;6.32;2.13;;;14.70;99.90;;;;;;5091782;28;20024;-57
2022/07/03 02:41:42;;;;;;;5.63;1.85;;;14.70;99.90;;;;;;5091419;28;20428;-57
2022/07/03 02:44:43;;;;;;;6.60;1.88;;;14.80;99.90;;;;;;5090529;28;20024;-57
2022/07/03 02:47:32;;;;;;;6.60;2.00;;;14.80;99.90;;;;;;5090034;28;20142;-57
2022/07/03 02:49:58;;;;;;;6.65;1.90;;;14.60;99.90;;;;;;5089873;28;20555;-58
2022/07/03 02:52:38;;;;;;;7.32;2.05;;;14.40;99.90;;;;;;5090006;28;20032;-58
2022/07/03 02:55:45;;;;;;;7.93;2.20;;;14.40;99.90;;;;;;5090265;28;20085;-57
2022/07/03 02:58:19;;;;;;;6.72;1.92;;;14.30;99.90;;;;;;5085542;28;20032;-57
2022/07/03 03:00:59;;;;;;;6.45;1.80;;;14.20;99.90;;;;;;5090395;28;20412;-57
2022/07/03 03:03:29;;;;;;;5.30;1.92;;;14.20;99.90;;;;;;5073097;28;20016;-58
2022/07/03 03:06:01;;;;;;;7.40;1.98;;;14.20;99.90;;;;;;5087938;28;20396;-58
2022/07/03 03:08:43;;;;;;;5.55;2.00;;;14.20;99.90;;;;;;5090123;28;20020;-57
2022/07/03 03:11:23;;;;;;;6.60;2.30;;;14.10;99.90;;;;;;5090627;28;20424;-57
2022/07/03 03:13:53;;;;;;;7.88;2.42;;;14.10;99.90;;;;;;5090093;28;20035;-57
2022/07/03 03:16:19;;;;;;;7.55;2.28;;;14.00;99.90;;;;;;5090184;28;20487;-57
2022/07/03 03:18:46;;;;;;;7.93;2.00;;;14.10;99.90;;;;;;5088969;28;20043;-57
2022/07/03 03:21:16;;;;;;;7.18;2.10;;;14.10;99.90;;;;;;5089694;28;20020;-57
2022/07/03 03:23:50;;;;;;;7.07;2.10;;;14.00;99.90;;;;;;5092084;28;20422;-57
2022/07/03 03:26:25;;;;;;;4.38;1.70;;;13.90;99.90;;;;;;5089793;28;20036;-57
2022/07/03 03:28:51;;;;;;;5.50;1.92;;;13.90;99.90;;;;;;5089881;28;20032;-57
2022/07/03 03:31:18;;;;;;;5.63;2.17;;;13.90;99.90;;;;;;5088970;28;20039;-57
2022/07/03 03:33:46;;;;;;;6.45;2.10;;;13.90;99.90;;;;;;5090162;28;20520;-57
2022/07/03 03:36:15;;;;;;;9.05;2.20;;;13.90;99.90;;;;;;5089764;28;20039;-57
2022/07/03 03:38:41;;;;;;;9.13;2.42;;;13.90;99.90;;;;;;5091984;28;20035;-57
2022/07/03 03:41:07;;;;;;;7.47;2.42;;;13.90;99.90;;;;;;5089820;28;20111;-57
2022/07/03 03:43:34;;;;;;;6.07;2.17;;;13.80;99.90;;;;;;5088623;28;20395;-57
2022/07/03 03:46:01;;;;;;;4.32;2.20;;;13.80;99.90;;;;;;5088120;28;20032;-57
2022/07/03 03:48:27;;;;;;;6.63;2.50;;;13.80;99.90;;;;;;5089894;28;20408;-57
2022/07/03 03:50:54;;;;;;;9.25;2.60;;;13.80;99.90;;;;;;5091407;28;20123;-57
2022/07/03 03:53:20;;;;;;;7.45;2.50;;;13.60;99.90;;;;;;5088641;28;20020;-57
2022/07/03 03:56:06;;;;;;;6.97;2.20;;;13.70;99.90;;;;;;5089965;28;20511;-57
2022/07/03 03:58:35;;;;;;;8.57;2.40;;;13.80;99.90;;;;;;5089743;28;20032;-57
2022/07/03 04:01:01;;;;;;;8.75;2.28;;;13.80;99.90;;;;;;5089469;28;20119;-57
2022/07/03 04:03:29;;;;;;;9.38;2.80;;;13.70;99.90;;;;;;5093342;28;20025;-57
2022/07/03 04:05:55;;;;;;;6.50;2.58;;;13.70;99.90;;;;;;5095557;28;20416;-57
2022/07/03 04:08:22;;;;;;;8.57;2.60;;;13.80;99.90;;;;;;5093787;28;20370;-57
2022/07/03 04:10:49;;;;;;;6.90;2.60;;;13.70;99.90;;;;;;5093550;28;20024;-57
2022/07/03 04:13:15;;;;;;;8.40;3.05;;;13.70;99.90;;;;;;5093489;28;20093;-57
2022/07/03 04:15:41;;;;;;;8.45;2.72;;;13.80;99.90;;;;;;5093298;28;20033;-57
2022/07/03 04:18:08;;;;;;;10.25;2.72;;;13.90;99.90;;;;;;5094229;28;20032;-57
2022/07/03 04:20:33;;;;;;;5.57;2.53;;;13.80;99.90;;;;;;5094658;28;20051;-57
2022/07/03 04:23:00;;;;;;;9.45;2.40;;;13.70;99.90;;;;;;5091856;28;20089;-57
2022/07/03 04:25:26;;;;;;;6.90;2.40;;;13.70;99.90;;;;;;5091424;28;20016;-57
2022/07/03 04:27:52;;;;;;;9.63;2.60;;;13.70;99.90;;;;;;5093368;28;20431;-57
2022/07/03 04:30:18;;;;;;;7.45;2.42;;;13.70;99.90;;;;;;5091832;28;20061;-57
2022/07/03 04:32:44;;;;;;;6.93;2.53;;;13.70;99.90;;;;;;5095187;28;20122;-57
2022/07/03 04:35:09;;;;;;;9.10;2.40;;;13.70;99.90;;;;;;5092792;28;20032;-57
2022/07/03 04:37:35;;;;;;;4.97;2.15;;;13.80;99.90;;;;;;5092938;28;20103;-57
2022/07/03 04:40:01;;;;;;;8.00;2.42;;;13.80;99.90;;;;;;5093428;28;20419;-57
2022/07/03 04:42:27;;;;;;;6.55;2.60;;;13.80;99.90;;;;;;5092824;28;20078;-57
2022/07/03 04:44:53;;;;;;;5.28;2.75;;;13.90;99.90;;;;;;5094863;28;20031;-57
2022/07/03 04:47:18;;;;;;;6.30;2.30;;;14.00;99.90;;;;;;5092740;28;20105;-57
2022/07/03 04:49:44;;;;;;;6.10;2.17;;;14.00;99.90;;;;;;5092684;28;20451;-58
2022/07/03 04:52:10;;;;;;;10.23;2.50;;;14.00;99.90;;;;;;5092722;28;20077;-57
2022/07/03 04:54:36;;;;;;;6.53;2.58;;;14.00;99.90;;;;;;5092774;28;20039;-57
2022/07/03 04:57:03;;;;;;;4.57;1.90;;;14.10;99.90;;;;;;5093848;28;20024;-57
2022/07/03 04:59:28;;;;;;;6.97;2.80;;;14.20;99.90;;;;;;5093902;28;20024;-57
2022/07/03 05:01:54;;;;;;;9.18;2.60;;;14.10;99.90;;;;;;5090730;28;20384;-56
2022/07/03 05:04:21;;;;;;;6.05;2.70;;;14.30;99.90;;;;;;5090948;28;20454;-58
2022/07/03 05:06:47;;;;;;;4.72;2.40;;;14.40;99.90;;;;;;5092454;28;20107;-57
2022/07/03 05:09:13;;;;;;;6.70;2.45;;;14.40;99.90;;;;;;5092749;28;20099;-57
2022/07/03 05:11:39;;;;;;;8.55;2.55;;;14.50;99.90;;;;;;5094382;28;20107;-57
2022/07/03 05:14:05;;;;;;;6.57;2.55;;;14.50;99.90;;;;;;5092181;28;20107;-57
2022/07/03 05:16:31;;;;;;;8.18;2.40;;;14.50;99.90;;;;;;5091926;28;20119;-58
2022/07/03 05:18:57;;;;;;;6.18;2.10;;;14.60;99.90;;;;;;5092576;28;20028;-57
2022/07/03 05:21:23;;;;;;;10.60;2.55;;;14.70;99.90;;;;;;5076105;28;20033;-57
2022/07/03 05:23:49;;;;;;;6.07;2.30;;;14.90;99.90;;;;;;5094149;28;20020;-57
2022/07/03 05:26:15;;;;;;;5.25;2.10;;;15.00;99.90;;;;;;5091960;28;20496;-57
2022/07/03 05:28:41;;;;;;;5.82;2.30;;;16.00;99.90;;;;;;5092337;28;20048;-57
2022/07/03 05:31:07;;;;;;;6.40;2.25;;;17.10;99.90;;;;;;5091658;28;20475;-57
2022/07/03 05:33:32;;;;;;;6.75;2.03;;;17.90;99.90;;;;;;5092049;28;20033;-57
2022/07/03 05:35:59;;;;;;;5.68;2.05;;;18.50;99.90;;;;;;5093338;28;20051;-57
2022/07/03 05:41:10;;;;;;;5.82;2.33;;;19.50;99.90;;;;;;5090799;28;20051;-58
2022/07/03 05:43:36;;;;;;;4.18;1.83;;;19.60;99.90;;;;;;5090044;28;20099;-57
2022/07/03 05:46:03;;;;;;;5.10;1.88;;;19.10;99.90;;;;;;5091401;28;20130;-58
2022/07/03 05:48:29;;;;;;;3.28;1.80;;;18.80;99.90;;;;;;5091743;28;20029;-58
2022/07/03 05:50:55;;;;;;;6.85;1.83;;;19.70;99.90;;;;;;5093512;28;20542;-57
2022/07/03 05:53:21;;;;;;;5.35;1.75;;;21.00;99.90;;;;;;5091749;28;20036;-58
2022/07/03 05:55:47;;;;;;;4.57;1.80;;;21.60;99.90;;;;;;5091796;28;20039;-58
2022/07/03 05:58:12;;;;;;;5.57;1.65;;;22.10;99.90;;;;;;5091314;28;20070;-58
2022/07/03 06:00:38;;;;;;;5.13;1.60;;;21.70;99.90;;;;;;5089936;28;20047;-57
2022/07/03 06:03:04;;;;;;;3.45;1.40;;;22.60;99.90;;;;;;5092359;28;20060;-57
2022/07/03 06:05:29;;;;;;;4.43;1.80;;;23.00;99.90;;;;;;5092696;28;20028;-57
2022/07/03 06:07:55;;;;;;;6.68;1.75;;;23.40;99.90;;;;;;5091411;28;20084;-58
2022/07/03 06:10:21;;;;;;;3.00;1.55;;;24.10;99.90;;;;;;5091223;28;20028;-58
2022/07/03 06:12:47;;;;;;;6.75;1.85;;;24.20;99.90;;;;;;5091244;28;20110;-58
2022/07/03 06:15:13;;;;;;;3.80;1.70;;;24.60;99.90;;;;;;5090844;28;20027;-58
2022/07/03 06:17:39;;;;;;;5.88;1.70;;;24.80;99.90;;;;;;5093050;28;20024;-58
2022/07/03 06:20:06;;;;;;;6.22;1.88;;;24.70;99.90;;;;;;5089935;28;20128;-58
2022/07/03 06:22:32;;;;;;;4.25;1.75;;;25.10;99.90;;;;;;5089470;28;20024;-58
2022/07/03 06:24:58;;;;;;;3.50;1.40;;;25.50;99.90;;;;;;5090458;28;20024;-58
2022/07/03 06:27:24;;;;;;;4.72;1.70;;;25.50;99.90;;;;;;5074821;28;20033;-58
2022/07/03 06:29:50;;;;;;;4.85;1.52;;;26.00;99.90;;;;;;5092475;28;20020;-58
2022/07/03 06:32:17;;;;;;;4.10;1.60;;;25.60;99.90;;;;;;5090990;28;20499;-58
2022/07/03 06:34:45;;;;;;;4.10;1.63;;;25.70;99.90;;;;;;5091021;28;20039;-58
2022/07/03 06:37:11;;;;;;;4.47;1.20;;;26.00;99.90;;;;;;5090714;28;20028;-57
2022/07/03 06:39:37;;;;;;;3.60;1.33;;;25.70;99.90;;;;;;5090759;28;20066;-58
2022/07/03 06:42:04;;;;;;;4.57;1.58;;;26.40;99.70;;;;;;5091657;28;20127;-57
2022/07/03 06:44:29;;;;;;;3.47;1.30;;;26.30;99.70;;;;;;5091720;28;20016;-58
2022/07/03 06:46:56;;;;;;;3.17;1.42;;;26.40;99.70;;;;;;5090510;28;20032;-58
2022/07/03 06:49:22;;;;;;;2.53;1.20;;;26.10;99.50;;;;;;5090431;28;20020;-58
2022/07/03 06:51:48;;;;;;;3.25;1.10;;;27.20;98.80;;;;;;5090647;28;20024;-58
2022/07/03 06:54:14;;;;;;;2.58;1.30;;;27.80;97.40;;;;;;5090568;28;20032;-58
2022/07/03 06:56:39;;;;;;;4.05;1.20;;;27.10;97.80;;;;;;5092769;28;20117;-58
2022/07/03 06:59:05;;;;;;;3.85;1.27;;;27.60;97.80;;;;;;5088872;28;20024;-58
2022/07/03 07:01:31;;;;;;;3.25;1.27;;;27.40;97.00;;;;;;5088786;28;20404;-58
2022/07/03 07:03:57;;;;;;;2.38;1.00;;;28.40;97.10;;;;;;5090544;28;20524;-58
2022/07/03 07:06:23;;;;;;;2.88;1.20;;;28.00;95.90;;;;;;5090508;28;20047;-58
2022/07/03 07:08:49;;;;;;;3.45;1.17;;;28.20;95.90;;;;;;5092488;28;20024;-58
2022/07/03 07:11:15;;;;;;;2.75;1.25;;;28.70;94.80;;;;;;5090116;28;20028;-58
2022/07/03 07:13:41;;;;;;;2.78;1.00;;;29.40;94.30;;;;;;5089785;28;20020;-58
2022/07/03 07:16:06;;;;;;;3.47;1.20;;;29.10;94.20;;;;;;5090189;28;20063;-58
2022/07/03 07:18:32;;;;;;;2.03;1.10;;;30.60;93.40;;;;;;5090276;28;20056;-58
2022/07/03 07:20:58;;;;;;;2.60;1.17;;;29.30;92.50;;;;;;5091661;28;20111;-58
2022/07/03 07:23:24;;;;;;;1.70;1.20;;;29.30;92.30;;;;;;5089233;28;20024;-58
2022/07/03 07:25:49;;;;;;;2.20;1.10;;;29.70;92.40;;;;;;5089979;28;20059;-58
2022/07/03 07:28:15;;;;;;;2.35;1.00;;;30.50;91.90;;;;;;5089558;28;20097;-58
2022/07/03 07:30:41;;;;;;;3.13;1.10;;;31.20;90.30;;;;;;5088895;28;20107;-58
2022/07/03 07:33:07;;;;;;;3.22;1.10;;;31.00;90.20;;;;;;5090530;28;20058;-58
2022/07/03 07:35:33;;;;;;;2.78;1.10;;;31.00;89.30;;;;;;5091562;28;20392;-57
2022/07/03 07:37:59;;;;;;;2.28;1.25;;;31.90;88.60;;;;;;5091209;28;20029;-58
2022/07/03 07:40:25;;;;;;;2.65;1.30;;;32.10;88.00;;;;;;5092926;28;20031;-58
2022/07/03 07:42:50;;;;;;;2.20;0.90;;;32.40;86.30;;;;;;5093847;28;20047;-58
2022/07/03 07:45:16;;;;;;;1.20;1.00;;;32.20;85.10;;;;;;5094451;28;20029;-58
2022/07/03 07:47:42;;;;;;;2.58;1.00;;;31.80;88.10;;;;;;5096045;28;20035;-58
2022/07/03 07:50:08;;;;;;;2.05;1.05;;;32.10;85.90;;;;;;5093906;28;20028;-58
2022/07/03 07:52:34;;;;;;;2.80;1.10;;;31.80;86.60;;;;;;5094185;28;20024;-58
2022/07/03 07:55:00;;;;;;;3.05;1.23;;;32.40;85.00;;;;;;5093847;28;20024;-58
2022/07/03 07:57:34;;;;;;;3.53;1.17;;;32.90;83.30;;;;;;5093716;28;20103;-58
2022/07/03 08:00:13;;;;;;;3.22;1.30;;;32.40;82.70;;;;;;5091905;28;20024;-58
2022/07/03 08:05:37;;;;;;;2.30;1.00;;;33.60;81.10;;;;;;5093481;28;20027;-58
2022/07/03 08:08:05;;;;;;;3.05;1.08;;;34.20;80.30;;;;;;5093762;28;20059;-58
2022/07/03 08:10:45;;;;;;;2.70;1.92;;;34.30;79.70;;;;;;5093255;28;20373;-58
2022/07/03 08:13:12;;;;;;;1.80;1.10;;;33.50;80.60;;;;;;5093511;28;20028;-58
2022/07/03 08:15:38;;;;;;;2.90;1.20;;;33.40;80.20;;;;;;5092298;28;20038;-58
2022/07/03 08:18:04;;;;;;;2.42;1.38;;;33.70;77.40;;;;;;5094522;28;20024;-58
2022/07/03 08:20:30;;;;;;;3.63;1.67;;;34.70;78.20;;;;;;5092924;28;20028;-58
2022/07/03 08:22:56;;;;;;;1.77;0.90;;;33.30;80.30;;;;;;5093633;28;20024;-58
2022/07/03 08:25:22;;;;;;;1.42;0.90;;;30.80;82.80;;;;;;5092912;28;20036;-58
2022/07/03 08:27:48;;;;;;;2.75;1.15;;;30.60;84.30;;;;;;5093306;28;20572;-58
2022/07/03 08:30:17;;;;;;;2.58;1.17;;;31.10;84.50;;;;;;5093593;28;20031;-58
2022/07/03 08:32:44;;;;;;;1.70;1.00;;;31.30;82.00;;;;;;5095030;28;20085;-58
2022/07/03 08:35:10;;;;;;;1.48;1.02;;;32.00;80.20;;;;;;5093135;28;20153;-58
2022/07/03 08:37:35;;;;;;;2.70;1.20;;;31.60;82.10;;;;;;5092885;28;20036;-58
2022/07/03 08:40:03;;;;;;;2.90;1.10;;;31.50;81.50;;;;;;5092798;28;20019;-58
2022/07/03 08:42:32;;;;;;;3.58;1.00;;;30.60;81.80;;;;;;5092765;28;20131;-58
2022/07/03 08:45:01;;;;;;;3.42;1.48;;;30.80;82.90;;;;;;5093495;28;20054;-58
2022/07/03 08:47:27;;;;;;;2.60;1.20;;;31.00;82.30;;;;;;5091774;28;20566;-58
2022/07/03 08:49:54;;;;;;;3.05;1.23;;;31.20;84.50;;;;;;5092680;28;20145;-58
2022/07/03 08:52:22;;;;;;;2.08;1.10;;;32.90;82.10;;;;;;5092705;28;20115;-58
2022/07/03 08:54:48;;;;;;;3.95;1.35;;;33.60;79.30;;;;;;5091621;28;20027;-57
2022/07/03 08:57:15;;;;;;;2.85;1.20;;;33.80;79.20;;;;;;5092561;28;20102;-58
2022/07/03 08:59:44;;;;;;;2.05;1.02;;;34.20;77.90;;;;;;5093593;28;20028;-58
2022/07/03 09:02:12;;;;;;;2.55;1.00;;;34.20;78.60;;;;;;5092697;28;20020;-58
2022/07/03 09:04:38;;;;;;;2.08;1.10;;;34.20;77.30;;;;;;5092637;28;20024;-58
2022/07/03 09:07:07;;;;;;;3.03;1.00;;;33.90;76.40;;;;;;5092637;28;20039;-58
2022/07/03 09:09:34;;;;;;;1.70;0.90;;;32.40;78.30;;;;;;5092135;28;20549;-58
2022/07/03 09:11:59;;;;;;;3.05;1.10;;;34.20;77.30;;;;;;5093955;28;20037;-58
2022/07/03 09:14:25;;;;;;;3.63;1.20;;;34.40;77.00;;;;;;5093343;28;20476;-58
2022/07/03 09:16:51;;;;;;;3.17;1.25;;;34.90;74.00;;;;;;5092363;28;20547;-58
2022/07/03 09:19:47;;;;;;;2.42;1.15;;;31.50;75.60;;;;;;5092290;28;20012;-58
2022/07/03 09:22:27;;;;;;;2.67;0.90;;;32.90;78.20;;;;;;5092305;28;20032;-57
2022/07/03 09:25:02;;;;;;;2.28;1.02;;;34.90;74.30;;;;;;5092018;28;20036;-58
2022/07/03 09:27:28;;;;;;;2.92;1.05;;;35.30;73.50;;;;;;5076333;28;20043;-58
2022/07/03 09:30:01;;;;;;;1.60;0.95;;;35.80;73.80;;;;;;5094585;28;20032;-58
2022/07/03 09:32:36;;;;;;;3.78;1.15;;;37.00;72.60;;;;;;5090933;28;20038;-58
2022/07/03 09:35:20;;;;;;;2.30;1.10;;;35.70;72.30;;;;;;5090418;28;20412;-58
2022/07/03 09:37:57;;;;;;;1.10;0.80;;;35.50;73.10;;;;;;5089790;28;20036;-57
2022/07/03 09:40:25;;;;;;;1.77;1.00;;;36.50;71.80;;;;;;5091916;28;20016;-58
2022/07/03 09:43:06;;;;;;;1.45;0.90;;;34.50;71.20;;;;;;5092067;28;20105;-58
2022/07/03 09:45:53;;;;;;;2.53;0.88;;;34.80;68.70;;;;;;5076496;28;20043;-58
2022/07/03 09:48:36;;;;;;;2.47;0.90;;;35.70;68.70;;;;;;5091703;28;20028;-58
2022/07/03 09:51:33;;;;;;;1.53;0.90;;;33.30;71.70;;;;;;5090025;28;20024;-58
2022/07/03 09:54:01;;;;;;;1.33;0.98;;;33.40;69.20;;;;;;5084699;28;20044;-58
2022/07/03 09:56:37;;;;;;;1.77;1.02;;;35.20;71.10;;;;;;5092120;28;20024;-58
2022/07/03 09:59:14;;;;;;;1.83;0.88;;;34.40;74.40;;;;;;5091031;28;20116;-58
2022/07/03 10:01:41;;;;;;;1.42;1.00;;;35.20;71.10;;;;;;5091297;28;20066;-58
2022/07/03 10:04:19;;;;;;;1.85;1.00;;;35.40;69.00;;;;;;5090365;28;20427;-58
2022/07/03 10:06:48;;;;;;;2.08;1.20;;;35.60;69.70;;;;;;5091105;28;20482;-58
2022/07/03 10:09:19;;;;;;;1.30;0.90;;;35.90;70.30;;;;;;5091341;28;20423;-58
2022/07/03 10:11:45;;;;;;;1.60;0.98;;;34.40;67.20;;;;;;5093327;28;20039;-58
2022/07/03 10:14:15;;;;;;;1.02;0.90;;;34.10;67.20;;;;;;5089783;28;20036;-58
2022/07/03 10:16:42;;;;;;;2.00;0.93;;;32.60;69.70;;;;;;5089979;28;20095;-58
2022/07/03 10:19:19;;;;;;;3.25;1.10;;;32.40;73.10;;;;;;5090934;28;20117;-58
2022/07/03 10:21:49;;;;;;;2.38;1.10;;;34.10;70.30;;;;;;5090794;28;20492;-58
2022/07/03 10:24:17;;;;;;;2.63;0.95;;;31.90;68.90;;;;;;5091450;28;20081;-58
2022/07/03 10:26:43;;;;;;;1.83;0.80;;;30.90;70.10;;;;;;5108593;28;20042;-58
2022/07/03 10:29:10;;;;;;;2.15;0.80;;;31.30;68.30;;;;;;5090800;28;20024;-58
2022/07/03 10:31:38;;;;;;;1.33;0.95;;;30.60;68.90;;;;;;5090800;28;20065;-57
2022/07/03 10:34:06;;;;;;;1.30;0.90;;;30.20;70.00;;;;;;5090667;28;20024;-58
2022/07/03 10:36:33;;;;;;;2.15;0.90;;;31.90;72.40;;;;;;5090567;28;20024;-58
2022/07/03 10:39:05;;;;;;;1.83;0.70;;;29.80;71.60;;;;;;5092414;28;20115;-57
2022/07/03 10:47:04;;;;;;;2.70;0.90;;;32.70;72.80;;;;;;5090862;28;20430;-58
2022/07/03 10:49:32;;;;;;;5.70;1.05;;;33.70;72.40;;;;;;5090384;28;20048;-58
2022/07/03 10:52:02;;;;;;;1.55;0.98;;;33.80;71.00;;;;;;5088865;28;20409;-58
2022/07/03 10:54:39;;;;;;;2.75;0.90;;;33.80;71.70;;;;;;5073185;28;20073;-58
2022/07/03 10:57:06;;;;;;;1.10;0.75;;;34.70;70.60;;;;;;5091403;28;20481;-58
2022/07/03 10:59:32;;;;;;;1.70;0.85;;;31.90;62.20;;;;;;5091582;28;20430;-58
2022/07/03 11:02:22;;;;;;;1.30;0.90;;;32.70;65.20;;;;;;5090263;28;20028;-58
2022/07/03 11:04:57;;;;;;;1.88;1.20;;;34.00;69.40;;;;;;5090102;28;20431;-58
2022/07/03 11:07:24;;;;;;;1.85;0.90;;;34.50;65.90;;;;;;5090188;28;20043;-57
2022/07/03 11:10:09;;;;;;;2.20;0.95;;;31.50;69.30;;;;;;5090204;28;20457;-58
2022/07/03 11:13:11;;;;;;;1.95;1.00;;;32.80;72.80;;;;;;5075241;28;20085;-58
2022/07/03 11:15:37;;;;;;;1.67;0.90;;;32.00;68.90;;;;;;5055107;28;20530;-57
2022/07/03 11:18:08;;;;;;;2.78;1.00;;;32.30;69.80;;;;;;5068876;28;20043;-58
2022/07/03 11:20:42;;;;;;;1.02;0.80;;;32.40;66.90;;;;;;5069301;28;20028;-58
2022/07/03 11:23:26;;;;;;;1.10;0.95;;;31.80;64.60;;;;;;5068945;28;20042;-58
2022/07/03 11:25:54;;;;;;;1.45;0.90;;;30.40;70.40;;;;;;5068948;28;20040;-58
2022/07/03 11:28:31;;;;;;;1.83;1.00;;;30.40;67.30;;;;;;5068954;28;20044;-58
2022/07/03 11:31:18;;;;;;;1.02;0.90;;;30.00;67.40;;;;;;5068860;28;20058;-57
2022/07/03 11:33:55;;;;;;;0.70;0.70;;;31.90;67.90;;;;;;5068707;28;20508;-57
2022/07/03 11:36:27;;;;;;;1.02;0.73;;;31.00;67.10;;;;;;5068949;28;20491;-58
2022/07/03 11:38:58;;;;;;;1.48;0.70;;;32.50;65.50;;;;;;5065403;28;20066;-57
2022/07/03 11:41:29;;;;;;;1.25;0.75;;;32.80;67.00;;;;;;5069354;28;20452;-58
2022/07/03 11:43:57;;;;;;;1.83;1.00;;;32.20;66.70;;;;;;5068813;28;20507;-57
2022/07/03 11:46:27;;;;;;;2.60;1.02;;;30.50;69.90;;;;;;5068679;28;20040;-58
2022/07/03 11:49:16;;;;;;;3.08;1.13;;;28.90;69.60;;;;;;5072596;28;20051;-58
2022/07/03 11:51:52;;;;;;;1.20;0.80;;;31.20;71.90;;;;;;5075973;28;20058;-58
2022/07/03 11:54:18;;;;;;;1.50;0.88;;;32.40;70.40;;;;;;5090223;28;20103;-58
2022/07/03 11:56:44;;;;;;;1.67;1.00;;;31.50;68.10;;;;;;5091738;28;20031;-58
2022/07/03 11:59:10;;;;;;;1.33;0.80;;;32.30;69.80;;;;;;5089622;28;20032;-58
2022/07/03 12:01:39;;;;;;;1.45;0.90;;;32.90;69.40;;;;;;5089586;28;20040;-58
2022/07/03 12:04:14;;;;;;;2.67;1.00;;;32.80;69.00;;;;;;5089893;28;20020;-58
2022/07/03 12:06:45;;;;;;;1.80;0.95;;;30.60;68.20;;;;;;5090052;28;20039;-58
2022/07/03 12:09:21;;;;;;;2.03;1.00;;;31.40;69.90;;;;;;5090509;28;20027;-58
2022/07/03 12:11:58;;;;;;;1.42;0.80;;;32.70;69.10;;;;;;5090745;28;20097;-57
2022/07/03 12:14:42;;;;;;;1.33;0.80;;;32.80;68.90;;;;;;5090335;28;20032;-58
2022/07/03 12:17:09;;;;;;;;;;;32.50;68.40;;;;;;5089259;28;20531;-58
2022/07/03 12:19:35;;;;;;;1.90;0.90;;;30.40;70.50;;;;;;5089684;28;20326;-58
2022/07/03 12:22:01;;;;;;;1.55;1.00;;;30.10;70.00;;;;;;5089624;28;20504;-58
2022/07/03 12:24:27;;;;;;;2.30;0.98;;;30.70;69.70;;;;;;5091830;28;20021;-57
2022/07/03 12:26:52;;;;;;;1.60;0.98;;;30.90;70.20;;;;;;5095191;28;20505;-58
2022/07/03 12:29:18;;;;;;;2.53;1.20;;;29.90;70.90;;;;;;5093498;28;20020;-58
2022/07/03 12:31:45;;;;;;;2.33;1.42;;;29.20;72.90;;;;;;5092838;28;20036;-58
2022/07/03 12:34:13;;;;;;;2.80;0.95;;;29.60;74.70;;;;;;5093179;28;20016;-58
2022/07/03 12:36:39;;;;;;;3.13;1.40;;;30.00;74.40;;;;;;5093266;28;20024;-58
2022/07/03 12:39:05;;;;;;;3.25;0.85;;;29.20;74.10;;;;;;5094540;28;20028;-58
2022/07/03 12:41:32;;;;;;;1.60;0.90;;;28.90;73.10;;;;;;5093856;28;20562;-57
2022/07/03 12:43:59;;;;;;;1.88;1.10;;;31.40;73.80;;;;;;5092906;28;20051;-58
2022/07/03 12:46:26;;;;;;;1.27;0.90;;;31.50;74.70;;;;;;5092463;28;20070;-58
2022/07/03 12:48:54;;;;;;;1.90;0.90;;;30.40;73.90;;;;;;5091452;28;20097;-57
2022/07/03 12:51:53;;;;;;;3.35;1.23;;;30.30;74.70;;;;;;5093014;28;20030;-58
2022/07/03 12:54:30;;;;;;;1.85;0.90;;;30.40;73.70;;;;;;5092096;28;20028;-58
2022/07/03 13:00:05;;;;;;;2.15;1.10;;;29.30;72.70;;;;;;5090928;28;20044;-58
2022/07/03 13:02:32;;;;;;;1.83;1.10;;;30.60;77.30;;;;;;5093658;28;20103;-58
2022/07/03 13:04:59;;;;;;;2.25;1.00;;;31.40;76.70;;;;;;5091328;28;20388;-58
2022/07/03 13:07:30;;;;;;;2.70;1.05;;;30.60;78.20;;;;;;5092443;28;20051;-58
2022/07/03 13:09:59;;;;;;;3.75;1.00;;;30.70;78.00;;;;;;5092739;28;20073;-58
2022/07/03 13:12:25;;;;;;;2.67;1.40;;;31.60;77.80;;;;;;5092486;28;20036;-58
2022/07/03 13:15:01;;;;;;;2.85;1.30;;;30.70;81.80;;;;;;5094683;28;20523;-58
2022/07/03 13:17:54;;;;;;;3.10;1.38;;;31.50;80.30;;;;;;5091370;28;20032;-58